createdAt,value
2023-11-28T00:00:43.664Z,6.33
2023-11-28T00:03:13.808Z,6.20
2023-11-28T00:05:42.177Z,5.67
2023-11-28T00:08:12.389Z,6.03
2023-11-28T00:10:40.985Z,6.40
2023-11-28T00:13:10.641Z,6.83
2023-11-28T00:15:39.238Z,6.23
2023-11-28T00:18:10.802Z,8.53
2023-11-28T00:20:41.021Z,6.80
2023-11-28T00:23:10.022Z,7.37
2023-11-28T00:25:38.534Z,8.30
2023-11-28T00:28:07.521Z,8.03
2023-11-28T00:30:36.140Z,7.63
2023-11-28T00:33:05.224Z,7.33
2023-11-28T00:35:33.682Z,8.67
2023-11-28T00:38:03.917Z,7.77
2023-11-28T00:40:33.240Z,6.77
2023-11-28T00:43:02.290Z,6.40
2023-11-28T00:45:30.668Z,6.83
2023-11-28T00:47:58.957Z,5.97
2023-11-28T00:50:27.671Z,5.00
2023-11-28T00:52:56.511Z,5.60
2023-11-28T00:55:26.191Z,5.63
2023-11-28T00:57:54.826Z,5.40
2023-11-28T01:00:26.571Z,5.27
2023-11-28T01:02:55.302Z,5.13
2023-11-28T01:05:23.926Z,4.50
2023-11-28T01:07:52.666Z,4.73
2023-11-28T01:10:21.024Z,4.47
2023-11-28T01:12:52.159Z,5.03
2023-11-28T01:15:20.658Z,4.80
2023-11-28T01:17:49.399Z,4.77
2023-11-28T01:20:17.830Z,5.13
2023-11-28T01:22:46.547Z,4.47
2023-11-28T01:25:14.996Z,5.20
2023-11-28T01:27:43.543Z,4.83
2023-11-28T01:30:15.418Z,5.20
2023-11-28T01:32:44.659Z,4.83
2023-11-28T01:35:13.237Z,4.50
2023-11-28T01:37:42.004Z,4.80
2023-11-28T01:40:11.846Z,4.80
2023-11-28T01:42:40.975Z,4.50
2023-11-28T01:45:10.661Z,5.07
2023-11-28T01:47:41.560Z,5.03
2023-11-28T01:50:11.495Z,4.60
2023-11-28T01:52:40.227Z,4.80
2023-11-28T01:55:10.357Z,4.90
2023-11-28T01:57:39.827Z,4.67
2023-11-28T02:00:11.297Z,4.90
2023-11-28T02:02:41.484Z,4.60
2023-11-28T02:05:10.822Z,4.77
2023-11-28T02:07:39.797Z,5.07
2023-11-28T02:10:08.915Z,5.20
2023-11-28T02:12:37.609Z,5.33
2023-11-28T02:15:07.474Z,5.07
2023-11-28T02:17:36.115Z,5.30
2023-11-28T02:20:07.176Z,4.73
2023-11-28T02:22:36.153Z,4.87
2023-11-28T02:25:07.300Z,5.37
2023-11-28T02:27:40.549Z,5.57
2023-11-28T02:30:09.977Z,5.63
2023-11-28T02:32:38.770Z,4.80
2023-11-28T02:35:17.381Z,5.33
2023-11-28T02:37:51.530Z,5.20
2023-11-28T02:40:20.147Z,5.90
2023-11-28T02:42:50.068Z,5.47
2023-11-28T02:45:18.661Z,5.90
2023-11-28T02:47:47.178Z,6.10
2023-11-28T02:50:16.205Z,6.60
2023-11-28T02:52:44.726Z,7.63
2023-11-28T02:55:12.988Z,10.70
2023-11-28T02:57:41.277Z,8.90
2023-11-28T03:00:11.837Z,7.60
2023-11-28T03:02:40.274Z,7.30
2023-11-28T03:05:13.937Z,7.87
2023-11-28T03:11:48.988Z,7.60
2023-11-28T03:14:18.012Z,12.10
2023-11-28T03:16:49.081Z,8.17
2023-11-28T03:19:18.002Z,8.77
2023-11-28T03:21:46.405Z,8.23
2023-11-28T03:24:15.909Z,8.70
2023-11-28T03:26:44.238Z,8.30
2023-11-28T03:29:16.517Z,8.27
2023-11-28T03:31:45.127Z,7.53
2023-11-28T03:34:15.012Z,8.37
2023-11-28T03:36:43.332Z,7.97
2023-11-28T03:39:12.394Z,9.97
2023-11-28T03:41:40.785Z,7.67
2023-11-28T03:44:09.484Z,8.40
2023-11-28T03:46:38.011Z,8.57
2023-11-28T03:49:06.747Z,7.77
2023-11-28T03:51:38.910Z,7.33
2023-11-28T03:54:08.132Z,8.43
2023-11-28T03:56:37.593Z,6.70
2023-11-28T03:59:06.568Z,6.60
2023-11-28T04:01:42.194Z,6.83
2023-11-28T04:04:11.454Z,7.43
2023-11-28T04:06:41.175Z,8.17
2023-11-28T04:09:10.267Z,6.93
2023-11-28T04:11:38.808Z,7.40
2023-11-28T04:14:07.585Z,17.43
2023-11-28T04:16:36.087Z,7.73
2023-11-28T04:19:04.697Z,11.67
2023-11-28T04:21:33.281Z,7.23
2023-11-28T04:24:03.837Z,7.17
2023-11-28T04:26:32.265Z,6.47
2023-11-28T04:29:01.319Z,7.20
2023-11-28T04:31:32.111Z,7.83
2023-11-28T04:34:00.776Z,6.13
2023-11-28T04:36:29.569Z,6.13
2023-11-28T04:39:00.395Z,5.30
2023-11-28T04:41:30.765Z,5.60
2023-11-28T04:43:59.745Z,5.07
2023-11-28T04:46:28.180Z,5.60
2023-11-28T04:48:57.194Z,5.27
2023-11-28T04:51:26.182Z,6.43
2023-11-28T04:53:54.663Z,7.50
2023-11-28T04:56:23.079Z,6.80
2023-11-28T04:58:53.344Z,6.43
2023-11-28T05:01:21.944Z,5.93
2023-11-28T05:03:52.260Z,5.90
2023-11-28T05:06:21.311Z,5.87
2023-11-28T05:08:50.335Z,5.10
2023-11-28T05:11:18.631Z,5.17
2023-11-28T05:13:47.455Z,5.57
2023-11-28T05:16:17.570Z,7.33
2023-11-28T05:18:48.919Z,9.47
2023-11-28T05:21:37.268Z,11.83
2023-11-28T05:24:07.001Z,10.67
2023-11-28T05:26:36.763Z,7.87
2023-11-28T05:29:05.493Z,5.77
2023-11-28T05:31:35.731Z,4.83
2023-11-28T05:34:06.096Z,4.93
2023-11-28T05:36:36.075Z,5.10
2023-11-28T05:39:06.183Z,4.63
2023-11-28T05:41:35.358Z,4.63
2023-11-28T05:44:06.675Z,5.23
2023-11-28T05:46:37.020Z,4.43
2023-11-28T05:49:05.974Z,5.03
2023-11-28T05:51:35.538Z,7.33
2023-11-28T05:54:06.464Z,6.80
2023-11-28T05:56:36.294Z,6.53
2023-11-28T05:59:06.310Z,5.73
2023-11-28T06:01:57.100Z,6.07
2023-11-28T06:04:26.262Z,7.10
2023-11-28T06:06:55.188Z,6.20
2023-11-28T06:09:25.311Z,6.13
2023-11-28T06:11:55.727Z,6.80
2023-11-28T06:14:43.818Z,8.27
2023-11-28T06:17:15.569Z,6.50
2023-11-28T06:19:44.059Z,8.53
2023-11-28T06:22:12.809Z,8.70
2023-11-28T06:24:41.540Z,7.90
2023-11-28T06:27:10.380Z,9.73
2023-11-28T06:29:49.663Z,8.23
2023-11-28T06:32:20.037Z,9.47
2023-11-28T06:34:49.644Z,8.30
2023-11-28T06:37:18.980Z,8.73
2023-11-28T06:39:48.612Z,8.60
2023-11-28T06:42:19.559Z,9.10
2023-11-28T06:44:48.237Z,8.87
2023-11-28T06:47:28.440Z,9.77
2023-11-28T06:49:57.729Z,9.10
2023-11-28T06:52:26.701Z,8.67
2023-11-28T06:54:56.693Z,8.00
2023-11-28T06:57:32.096Z,10.63
2023-11-28T07:00:01.801Z,9.80
2023-11-28T07:02:34.201Z,10.90
2023-11-28T07:05:22.970Z,9.40
2023-11-28T07:07:52.244Z,10.13
2023-11-28T07:10:21.835Z,8.40
2023-11-28T07:12:52.396Z,8.27
2023-11-28T07:15:23.955Z,9.70
2023-11-28T07:17:54.122Z,7.30
2023-11-28T07:20:23.402Z,8.37
2023-11-28T07:22:53.616Z,8.00
2023-11-28T07:25:24.579Z,7.50
2023-11-28T07:27:54.570Z,8.70
2023-11-28T07:30:24.617Z,9.50
2023-11-28T07:32:55.190Z,8.20
2023-11-28T07:35:24.881Z,7.63
2023-11-28T07:37:53.458Z,7.53
2023-11-28T07:40:25.449Z,8.23
2023-11-28T07:42:54.943Z,8.70
2023-11-28T07:45:25.635Z,8.13
2023-11-28T07:47:57.560Z,8.67
2023-11-28T07:50:27.166Z,9.90
2023-11-28T07:52:56.097Z,10.40
2023-11-28T07:55:25.582Z,9.73
2023-11-28T07:57:54.326Z,10.47
2023-11-28T08:00:42.611Z,10.47
2023-11-28T08:03:12.406Z,11.57
2023-11-28T08:05:41.450Z,10.60
2023-11-28T08:08:10.147Z,12.23
2023-11-28T08:10:41.367Z,13.17
2023-11-28T08:13:10.158Z,11.70
2023-11-28T08:15:40.050Z,12.23
2023-11-28T08:18:08.503Z,13.67
2023-11-28T08:20:38.497Z,12.13
2023-11-28T08:23:07.432Z,12.43
2023-11-28T08:25:36.294Z,15.50
2023-11-28T08:28:04.938Z,13.30
2023-11-28T08:30:33.801Z,12.83
2023-11-28T08:33:02.236Z,13.13
2023-11-28T08:35:31.189Z,13.73
2023-11-28T08:38:01.021Z,11.97
2023-11-28T08:40:30.238Z,14.33
2023-11-28T08:42:58.751Z,12.10
2023-11-28T08:45:27.125Z,13.10
2023-11-28T08:47:55.942Z,11.20
2023-11-28T08:50:24.644Z,15.33
2023-11-28T08:52:53.538Z,13.57
2023-11-28T08:55:23.189Z,11.00
2023-11-28T08:57:51.837Z,11.93
2023-11-28T09:00:21.059Z,13.70
2023-11-28T09:02:50.480Z,12.03
2023-11-28T09:05:19.338Z,10.23
2023-11-28T09:07:49.100Z,13.03
2023-11-28T09:10:17.732Z,13.57
2023-11-28T09:12:49.458Z,13.63
2023-11-28T09:15:19.043Z,11.97
2023-11-28T09:17:51.320Z,13.07
2023-11-28T09:20:35.322Z,12.27
2023-11-28T09:23:04.569Z,13.60
2023-11-28T09:25:45.820Z,13.27
2023-11-28T09:28:39.915Z,10.67
2023-11-28T09:31:08.923Z,12.13
2023-11-28T09:33:38.881Z,11.67
2023-11-28T09:36:07.977Z,11.37
2023-11-28T09:38:36.699Z,11.60
2023-11-28T09:41:06.581Z,11.20
2023-11-28T09:43:56.221Z,12.73
2023-11-28T09:46:50.867Z,11.07
2023-11-28T09:49:20.725Z,11.30
2023-11-28T09:51:52.823Z,11.83
2023-11-28T09:54:23.353Z,10.90
2023-11-28T09:56:55.224Z,11.50
2023-11-28T09:59:27.591Z,9.60
2023-11-28T10:01:56.786Z,9.57
2023-11-28T10:04:29.392Z,9.53
2023-11-28T10:07:16.009Z,9.40
2023-11-28T10:09:48.736Z,9.33
2023-11-28T10:12:18.628Z,9.27
2023-11-28T10:15:09.653Z,9.50
2023-11-28T10:17:54.377Z,8.73
2023-11-28T10:20:28.580Z,7.87
2023-11-28T10:23:01.769Z,9.30
2023-11-28T10:25:50.674Z,8.83
2023-11-28T10:28:26.626Z,8.60
2023-11-28T10:30:56.520Z,9.40
2023-11-28T10:33:25.788Z,6.93
2023-11-28T10:35:54.722Z,7.47
2023-11-28T10:38:23.750Z,9.33
2023-11-28T10:40:55.020Z,9.00
2023-11-28T10:43:23.637Z,7.27
2023-11-28T10:45:57.228Z,7.00
2023-11-28T10:48:26.786Z,7.70
2023-11-28T10:50:56.335Z,7.90
2023-11-28T10:53:28.521Z,6.83
2023-11-28T10:56:02.858Z,8.13
2023-11-28T10:58:33.990Z,8.23
2023-11-28T11:01:21.954Z,8.50
2023-11-28T11:03:55.685Z,8.40
2023-11-28T11:06:24.920Z,6.57
2023-11-28T11:08:54.632Z,7.93
2023-11-28T11:11:24.277Z,8.10
2023-11-28T11:14:03.775Z,8.70
2023-11-28T11:16:39.671Z,7.47
2023-11-28T11:19:30.049Z,8.57
2023-11-28T11:22:06.247Z,7.83
2023-11-28T11:24:36.185Z,8.60
2023-11-28T11:27:24.174Z,7.73
2023-11-28T11:29:53.935Z,8.17
2023-11-28T11:32:24.997Z,7.70
2023-11-28T11:34:55.911Z,7.27
2023-11-28T11:37:32.816Z,6.17
2023-11-28T11:40:03.358Z,8.10
2023-11-28T11:42:36.140Z,7.10
2023-11-28T11:45:08.088Z,8.30
2023-11-28T11:47:45.357Z,10.03
2023-11-28T11:50:38.401Z,9.60
2023-11-28T11:53:10.565Z,9.20
2023-11-28T11:55:46.529Z,10.17
2023-11-28T11:58:15.512Z,9.30
2023-11-28T12:00:44.166Z,10.33
2023-11-28T12:03:14.327Z,9.83
2023-11-28T12:05:52.359Z,9.97
2023-11-28T12:08:22.330Z,8.70
2023-11-28T12:10:50.964Z,9.80
2023-11-28T12:13:20.475Z,9.93
2023-11-28T12:16:02.285Z,10.33
2023-11-28T12:18:38.495Z,10.03
2023-11-28T12:21:07.813Z,9.47
2023-11-28T12:23:41.987Z,12.47
2023-11-28T12:26:18.826Z,9.93
2023-11-28T12:28:48.666Z,10.77
2023-11-28T12:31:20.762Z,13.20
2023-11-28T12:33:51.783Z,13.07
2023-11-28T12:36:26.435Z,12.90
2023-11-28T12:38:59.480Z,13.83
2023-11-28T12:41:36.932Z,12.57
2023-11-28T12:44:11.242Z,12.17
2023-11-28T12:46:40.578Z,12.13
2023-11-28T12:49:11.861Z,14.83
2023-11-28T12:51:41.052Z,16.03
2023-11-28T12:54:12.071Z,14.40
2023-11-28T12:56:50.101Z,18.03
2023-11-28T12:59:19.303Z,14.23
2023-11-28T13:02:07.828Z,15.53
2023-11-28T13:04:57.567Z,17.03
2023-11-28T13:07:33.242Z,16.20
2023-11-28T13:10:08.734Z,15.97
2023-11-28T13:12:40.367Z,13.17
2023-11-28T13:15:12.620Z,14.50
2023-11-28T13:17:52.624Z,11.90
2023-11-28T13:20:24.151Z,12.50
2023-11-28T13:22:52.894Z,10.43
2023-11-28T13:25:21.695Z,9.77
2023-11-28T13:27:51.887Z,10.33
2023-11-28T13:30:40.105Z,9.20
2023-11-28T13:33:09.035Z,9.70
2023-11-28T13:35:41.061Z,10.90
2023-11-28T13:38:10.033Z,10.63
2023-11-28T13:40:38.846Z,10.83
2023-11-28T13:43:28.777Z,11.77
2023-11-28T13:45:57.841Z,11.97
2023-11-28T13:48:46.239Z,10.63
2023-11-28T13:51:16.391Z,10.93
2023-11-28T13:53:56.477Z,10.73
2023-11-28T13:56:26.848Z,9.33
2023-11-28T13:59:20.092Z,12.00
2023-11-28T14:01:51.487Z,12.57
2023-11-28T14:04:23.848Z,11.63
2023-11-28T14:07:13.571Z,10.97
2023-11-28T14:09:49.295Z,9.70
2023-11-28T14:12:37.654Z,10.93
2023-11-28T14:15:07.658Z,10.30
2023-11-28T14:17:38.057Z,11.57
2023-11-28T14:20:14.054Z,9.47
2023-11-28T14:22:44.337Z,12.07
2023-11-28T14:25:14.977Z,10.97
2023-11-28T14:27:44.349Z,10.83
2023-11-28T14:30:14.278Z,10.90
2023-11-28T14:33:07.591Z,10.37
2023-11-28T14:35:37.304Z,11.20
2023-11-28T14:38:09.308Z,12.50
2023-11-28T14:40:40.709Z,12.50
2023-11-28T14:43:10.369Z,13.10
2023-11-28T14:45:40.445Z,12.47
2023-11-28T14:48:10.215Z,12.07
2023-11-28T14:50:38.698Z,13.60
2023-11-28T14:53:12.563Z,15.13
2023-11-28T14:55:42.527Z,15.00
2023-11-28T14:58:11.437Z,14.47
2023-11-28T15:00:41.143Z,17.67
2023-11-28T15:03:10.319Z,16.43
2023-11-28T15:05:39.653Z,14.30
2023-11-28T15:08:10.328Z,14.90
2023-11-28T15:10:40.124Z,12.50
2023-11-28T15:13:21.700Z,13.30
2023-11-28T15:15:59.617Z,10.57
2023-11-28T15:18:28.958Z,11.37
2023-11-28T15:20:58.112Z,10.60
2023-11-28T15:23:29.095Z,11.07
2023-11-28T15:25:58.394Z,10.33
2023-11-28T15:28:28.165Z,10.77
2023-11-28T15:30:56.775Z,10.57
2023-11-28T15:33:35.943Z,10.23
2023-11-28T15:36:04.662Z,10.20
2023-11-28T15:38:35.504Z,9.03
2023-11-28T15:41:04.973Z,10.87
2023-11-28T15:43:34.099Z,11.03
2023-11-28T15:46:03.024Z,10.03
2023-11-28T15:48:31.529Z,10.33
2023-11-28T15:51:01.603Z,8.70
2023-11-28T15:53:31.123Z,9.87
2023-11-28T15:56:02.641Z,11.17
2023-11-28T15:58:31.016Z,9.80
2023-11-28T16:00:59.924Z,9.37
2023-11-28T16:03:29.875Z,9.60
2023-11-28T16:06:03.920Z,10.63
2023-11-28T16:08:36.868Z,9.07
2023-11-28T16:11:07.725Z,8.63
2023-11-28T16:13:37.333Z,8.10
2023-11-28T16:16:06.565Z,8.60
2023-11-28T16:18:36.286Z,7.97
2023-11-28T16:21:04.923Z,6.70
2023-11-28T16:23:33.634Z,8.07
2023-11-28T16:26:07.145Z,8.63
2023-11-28T16:28:39.770Z,9.10
2023-11-28T16:31:10.145Z,8.00
2023-11-28T16:33:39.894Z,7.73
2023-11-28T16:36:11.421Z,8.43
2023-11-28T16:38:40.402Z,8.13
2023-11-28T16:41:10.207Z,6.90
2023-11-28T16:43:38.977Z,8.43
2023-11-28T16:46:08.104Z,11.47
2023-11-28T16:48:37.177Z,7.80
2023-11-28T16:51:08.571Z,9.07
2023-11-28T16:53:38.917Z,8.60
2023-11-28T16:56:11.017Z,9.40
2023-11-28T16:58:40.418Z,9.83
2023-11-28T17:01:09.419Z,8.67
2023-11-28T17:03:38.513Z,8.17
2023-11-28T17:06:10.553Z,7.70
2023-11-28T17:08:41.843Z,8.27
2023-11-28T17:11:14.767Z,8.50
2023-11-28T17:13:43.938Z,9.37
2023-11-28T17:16:13.184Z,19.47
2023-11-28T17:18:42.443Z,10.10
2023-11-28T17:21:18.501Z,9.83
2023-11-28T17:23:49.046Z,7.80
2023-11-28T17:26:19.580Z,7.80
2023-11-28T17:28:48.519Z,7.20
2023-11-28T17:31:17.645Z,6.97
2023-11-28T17:33:47.130Z,7.40
2023-11-28T17:36:16.744Z,7.10
2023-11-28T17:38:45.723Z,6.63
2023-11-28T17:41:19.939Z,6.10
2023-11-28T17:43:50.601Z,7.10
2023-11-28T17:46:19.959Z,6.27
2023-11-28T17:48:49.757Z,7.13
2023-11-28T17:51:22.595Z,7.40
2023-11-28T17:53:54.305Z,5.93
2023-11-28T17:56:26.923Z,7.07
2023-11-28T17:58:56.966Z,6.00
2023-11-28T18:01:26.007Z,5.77
2023-11-28T18:03:54.851Z,6.77
2023-11-28T18:06:25.272Z,5.70
2023-11-28T18:08:55.687Z,6.67
2023-11-28T18:11:26.472Z,6.60
2023-11-28T18:13:56.329Z,6.33
2023-11-28T18:16:25.667Z,5.80
2023-11-28T18:18:57.450Z,5.97
2023-11-28T18:21:28.250Z,5.97
2023-11-28T18:23:58.102Z,6.20
2023-11-28T18:26:28.727Z,5.43
2023-11-28T18:28:59.638Z,5.67
2023-11-28T18:31:30.183Z,5.97
2023-11-28T18:33:59.589Z,5.83
2023-11-28T18:36:30.322Z,6.60
2023-11-28T18:39:04.170Z,5.50
2023-11-28T18:41:40.007Z,5.87
2023-11-28T18:44:13.714Z,6.33
2023-11-28T18:46:44.749Z,5.73
2023-11-28T18:49:13.438Z,6.40
2023-11-28T18:51:43.236Z,6.20
2023-11-28T18:54:12.374Z,5.80
2023-11-28T18:56:43.192Z,6.23
2023-11-28T18:59:12.864Z,6.20
2023-11-28T19:01:41.861Z,6.27
2023-11-28T19:04:11.529Z,6.17
2023-11-28T19:06:40.969Z,5.60
2023-11-28T19:09:10.300Z,5.80
2023-11-28T19:11:39.192Z,6.50
2023-11-28T19:14:09.503Z,6.10
2023-11-28T19:16:39.265Z,6.70
2023-11-28T19:19:09.562Z,6.40
2023-11-28T19:21:43.055Z,5.00
2023-11-28T19:24:11.810Z,4.90
2023-11-28T19:26:41.430Z,4.70
2023-11-28T19:29:11.411Z,4.50
2023-11-28T19:31:44.609Z,4.57
2023-11-28T19:34:17.274Z,4.47
2023-11-28T19:36:45.660Z,4.60
2023-11-28T19:39:14.666Z,5.67
2023-11-28T19:41:43.147Z,3.97
2023-11-28T19:44:14.456Z,4.03
2023-11-28T19:46:43.083Z,3.60
2023-11-28T19:49:31.459Z,3.40
2023-11-28T19:52:02.798Z,3.50
2023-11-28T19:54:32.456Z,3.73
2023-11-28T19:57:01.276Z,3.53
2023-11-28T19:59:31.201Z,3.90
2023-11-28T20:02:01.335Z,3.23
2023-11-28T20:04:31.190Z,3.77
2023-11-28T20:07:00.160Z,4.00
2023-11-28T20:09:29.307Z,3.93
2023-11-28T20:12:17.005Z,4.10
2023-11-28T20:15:07.592Z,4.87
2023-11-28T20:17:56.419Z,7.33
2023-11-28T20:20:45.249Z,4.63
2023-11-28T20:23:33.572Z,4.30
2023-11-28T20:26:04.422Z,4.77
2023-11-28T20:28:33.107Z,4.40
2023-11-28T20:31:05.895Z,4.93
2023-11-28T20:33:54.577Z,5.67
2023-11-28T20:36:30.729Z,5.83
2023-11-28T20:39:04.164Z,5.37
2023-11-28T20:41:33.796Z,6.73
2023-11-28T20:44:05.033Z,5.57
2023-11-28T20:46:40.242Z,4.93
2023-11-28T20:49:08.883Z,5.93
2023-11-28T20:51:37.747Z,5.03
2023-11-28T20:54:11.252Z,4.93
2023-11-28T20:56:42.593Z,5.20
2023-11-28T20:59:11.279Z,5.10
2023-11-28T21:01:46.313Z,4.77
2023-11-28T21:04:15.803Z,4.27
2023-11-28T21:06:44.662Z,4.67
2023-11-28T21:09:13.287Z,4.07
2023-11-28T21:11:41.785Z,5.23
2023-11-28T21:14:10.411Z,4.57
2023-11-28T21:16:39.520Z,4.73
2023-11-28T21:19:09.215Z,5.07
2023-11-28T21:21:37.514Z,4.57
2023-11-28T21:24:07.807Z,5.67
2023-11-28T21:26:36.383Z,4.77
2023-11-28T21:29:04.864Z,5.13
2023-11-28T21:31:35.207Z,5.80
2023-11-28T21:34:04.406Z,4.67
2023-11-28T21:36:35.938Z,4.70
2023-11-28T21:39:05.195Z,5.50
2023-11-28T21:41:34.445Z,5.10
2023-11-28T21:44:02.857Z,4.43
2023-11-28T21:46:31.660Z,5.00
2023-11-28T21:49:01.603Z,4.60
2023-11-28T21:51:30.403Z,3.90
2023-11-28T21:54:00.236Z,4.17
2023-11-28T21:56:29.134Z,4.47
2023-11-28T21:58:57.763Z,4.90
2023-11-28T22:01:28.010Z,5.97
2023-11-28T22:03:57.590Z,4.90
2023-11-28T22:06:26.450Z,4.80
2023-11-28T22:09:00.085Z,5.33
2023-11-28T22:11:34.835Z,5.03
2023-11-28T22:14:03.961Z,4.90
2023-11-28T22:16:32.627Z,5.03
2023-11-28T22:19:01.097Z,4.60
2023-11-28T22:21:30.557Z,5.57
2023-11-28T22:23:59.176Z,4.87
2023-11-28T22:26:27.719Z,5.20
2023-11-28T22:28:57.746Z,5.03
2023-11-28T22:31:26.086Z,4.60
2023-11-28T22:33:54.665Z,4.73
2023-11-28T22:36:26.011Z,5.20
2023-11-28T22:38:54.686Z,5.03
2023-11-28T22:41:23.133Z,5.27
2023-11-28T22:43:51.663Z,5.03
2023-11-28T22:46:21.957Z,5.37
2023-11-28T22:48:51.687Z,4.70
2023-11-28T22:51:20.335Z,5.03
2023-11-28T22:53:48.858Z,4.50
2023-11-28T22:56:23.136Z,5.13
2023-11-28T22:58:51.819Z,5.23
2023-11-28T23:01:23.670Z,5.10
2023-11-28T23:03:52.529Z,4.83
2023-11-28T23:06:21.143Z,4.87
2023-11-28T23:08:50.253Z,5.07
2023-11-28T23:11:18.982Z,5.03
2023-11-28T23:13:47.287Z,5.67
2023-11-28T23:16:16.094Z,5.20
2023-11-28T23:18:45.952Z,5.60
2023-11-28T23:21:14.432Z,5.57
2023-11-28T23:23:43.268Z,5.40
2023-11-28T23:26:11.632Z,5.83
2023-11-28T23:28:40.261Z,6.13
2023-11-28T23:31:09.208Z,7.23
2023-11-28T23:33:37.817Z,6.23
2023-11-28T23:36:08.442Z,6.60
2023-11-28T23:38:37.235Z,6.53
2023-11-28T23:41:06.114Z,6.73
2023-11-28T23:43:34.519Z,6.97
2023-11-28T23:46:02.819Z,5.73
2023-11-28T23:48:31.084Z,6.63
2023-11-28T23:51:01.348Z,6.37
2023-11-28T23:53:31.221Z,6.10
2023-11-28T23:55:59.810Z,8.00
2023-11-28T23:58:28.089Z,6.40
